sensor_id;sensor_type;location;lat;lon;timestamp;pressure;altitude;pressure_sealevel;temperature;humidity
56719;BME280;42597;40.636;0.278;2023-01-27T00:01:33;96861.91;;;9.79;55.12
56719;BME280;42597;40.636;0.278;2023-01-27T00:03:59;96855.50;;;9.12;45.60
56719;BME280;42597;40.636;0.278;2023-01-27T00:06:25;96866.16;;;7.82;47.45
56719;BME280;42597;40.636;0.278;2023-01-27T00:08:50;96859.19;;;9.20;57.61
56719;BME280;42597;40.636;0.278;2023-01-27T00:11:16;96847.81;;;8.46;50.08
56719;BME280;42597;40.636;0.278;2023-01-27T00:14:00;96857.13;;;7.41;50.37
56719;BME280;42597;40.636;0.278;2023-01-27T00:16:26;96843.72;;;9.32;51.59
56719;BME280;42597;40.636;0.278;2023-01-27T00:18:52;96851.41;;;8.50;48.16
56719;BME280;42597;40.636;0.278;2023-01-27T00:21:18;96845.66;;;8.27;47.16
56719;BME280;42597;40.636;0.278;2023-01-27T00:24:02;96841.19;;;8.96;56.70
56719;BME280;42597;40.636;0.278;2023-01-27T00:26:45;96838.13;;;10.48;52.53
56719;BME280;42597;40.636;0.278;2023-01-27T00:29:11;96833.00;;;8.52;49.81
56719;BME280;42597;40.636;0.278;2023-01-27T00:31:37;96828.63;;;9.44;47.26
56719;BME280;42597;40.636;0.278;2023-01-27T00:34:21;96840.81;;;9.09;48.75
56719;BME280;42597;40.636;0.278;2023-01-27T00:36:47;96805.44;;;9.11;49.96
56719;BME280;42597;40.636;0.278;2023-01-27T00:39:12;96828.88;;;7.93;47.52
56719;BME280;42597;40.636;0.278;2023-01-27T00:41:39;96821.34;;;9.16;51.30
56719;BME280;42597;40.636;0.278;2023-01-27T00:44:05;96812.63;;;9.07;49.64
56719;BME280;42597;40.636;0.278;2023-01-27T00:46:32;96814.50;;;8.90;54.66
56719;BME280;42597;40.636;0.278;2023-01-27T00:48:58;96819.34;;;8.20;52.90
56719;BME280;42597;40.636;0.278;2023-01-27T00:51:24;96827.31;;;7.92;49.85
56719;BME280;42597;40.636;0.278;2023-01-27T00:53:49;96834.06;;;7.40;52.66
56719;BME280;42597;40.636;0.278;2023-01-27T00:56:15;96805.94;;;9.01;55.26
56719;BME280;42597;40.636;0.278;2023-01-27T00:58:41;96815.72;;;8.16;49.80
56719;BME280;42597;40.636;0.278;2023-01-27T01:01:14;96808.50;;;8.69;50.72
56719;BME280;42597;40.636;0.278;2023-01-27T01:03:40;96813.59;;;8.46;54.31
56719;BME280;42597;40.636;0.278;2023-01-27T01:06:08;96815.50;;;8.58;53.41
56719;BME280;42597;40.636;0.278;2023-01-27T01:08:36;96803.84;;;7.56;49.64
56719;BME280;42597;40.636;0.278;2023-01-27T01:11:03;96807.19;;;8.91;52.45
56719;BME280;42597;40.636;0.278;2023-01-27T01:13:29;96813.47;;;7.57;50.47
56719;BME280;42597;40.636;0.278;2023-01-27T01:15:55;96804.53;;;8.02;48.36
56719;BME280;42597;40.636;0.278;2023-01-27T01:18:22;96821.06;;;6.76;51.83
56719;BME280;42597;40.636;0.278;2023-01-27T01:20:47;96824.19;;;6.78;47.70
56719;BME280;42597;40.636;0.278;2023-01-27T01:23:14;96820.88;;;7.14;48.86
56719;BME280;42597;40.636;0.278;2023-01-27T01:25:40;96837.16;;;6.76;47.85
56719;BME280;42597;40.636;0.278;2023-01-27T01:28:07;96814.19;;;7.90;54.09
56719;BME280;42597;40.636;0.278;2023-01-27T01:30:35;96830.06;;;7.59;46.20
56719;BME280;42597;40.636;0.278;2023-01-27T01:33:00;96834.09;;;7.65;49.81
56719;BME280;42597;40.636;0.278;2023-01-27T01:35:26;96840.72;;;6.68;49.00
56719;BME280;42597;40.636;0.278;2023-01-27T01:37:53;96823.97;;;7.37;55.16
56719;BME280;42597;40.636;0.278;2023-01-27T01:40:19;96812.88;;;9.02;55.71
56719;BME280;42597;40.636;0.278;2023-01-27T01:59:22;96821.00;;;7.18;49.79
56719;BME280;42597;40.636;0.278;2023-01-27T02:01:51;96818.91;;;9.11;51.43
56719;BME280;42597;40.636;0.278;2023-01-27T02:04:23;96820.56;;;8.87;50.97
56719;BME280;42597;40.636;0.278;2023-01-27T02:06:58;96827.59;;;8.64;51.53
56719;BME280;42597;40.636;0.278;2023-01-27T02:09:26;96822.59;;;7.89;54.21
56719;BME280;42597;40.636;0.278;2023-01-27T02:11:52;96810.56;;;8.23;51.76
56719;BME280;42597;40.636;0.278;2023-01-27T02:14:19;96805.41;;;7.57;50.66
56719;BME280;42597;40.636;0.278;2023-01-27T02:16:44;96792.69;;;8.96;47.57
56719;BME280;42597;40.636;0.278;2023-01-27T02:19:26;96822.56;;;7.64;57.04
56719;BME280;42597;40.636;0.278;2023-01-27T02:21:58;96811.94;;;8.17;51.77
56719;BME280;42597;40.636;0.278;2023-01-27T02:24:30;96810.78;;;10.50;53.63
56719;BME280;42597;40.636;0.278;2023-01-27T02:26:59;96813.38;;;8.92;49.41
56719;BME280;42597;40.636;0.278;2023-01-27T02:29:25;96812.06;;;7.96;47.47
56719;BME280;42597;40.636;0.278;2023-01-27T02:31:52;96827.59;;;6.87;49.20
56719;BME280;42597;40.636;0.278;2023-01-27T02:34:19;96802.91;;;8.62;56.05
56719;BME280;42597;40.636;0.278;2023-01-27T02:36:54;96805.53;;;8.86;51.97
56719;BME280;42597;40.636;0.278;2023-01-27T02:39:27;96808.50;;;9.69;48.83
56719;BME280;42597;40.636;0.278;2023-01-27T02:41:55;96810.13;;;8.33;46.18
56719;BME280;42597;40.636;0.278;2023-01-27T02:44:23;96795.66;;;8.50;55.27
56719;BME280;42597;40.636;0.278;2023-01-27T02:46:48;96817.03;;;9.27;50.63
56719;BME280;42597;40.636;0.278;2023-01-27T02:49:14;96801.50;;;8.80;49.57
56719;BME280;42597;40.636;0.278;2023-01-27T02:51:40;96796.13;;;9.08;45.80
56719;BME280;42597;40.636;0.278;2023-01-27T02:54:06;96808.34;;;8.50;54.11
56719;BME280;42597;40.636;0.278;2023-01-27T02:56:32;96811.06;;;8.37;49.16
56719;BME280;42597;40.636;0.278;2023-01-27T02:58:58;96806.88;;;8.28;51.69
56719;BME280;42597;40.636;0.278;2023-01-27T03:01:24;96807.75;;;8.56;56.84
56719;BME280;42597;40.636;0.278;2023-01-27T03:03:50;96818.63;;;8.60;54.29
56719;BME280;42597;40.636;0.278;2023-01-27T03:06:17;96797.81;;;8.85;56.75
56719;BME280;42597;40.636;0.278;2023-01-27T03:08:43;96800.78;;;9.39;49.38
56719;BME280;42597;40.636;0.278;2023-01-27T03:11:09;96814.41;;;6.95;47.90
56719;BME280;42597;40.636;0.278;2023-01-27T03:13:35;96820.03;;;7.02;49.94
56719;BME280;42597;40.636;0.278;2023-01-27T03:16:02;96803.19;;;8.32;57.29
56719;BME280;42597;40.636;0.278;2023-01-27T03:18:48;96802.66;;;8.67;56.96
56719;BME280;42597;40.636;0.278;2023-01-27T03:21:16;96817.34;;;7.02;48.15
56719;BME280;42597;40.636;0.278;2023-01-27T03:23:42;96795.75;;;7.43;50.84
56719;BME280;42597;40.636;0.278;2023-01-27T03:26:10;96811.34;;;6.42;48.22
56719;BME280;42597;40.636;0.278;2023-01-27T03:28:36;96807.53;;;7.51;51.37
56719;BME280;42597;40.636;0.278;2023-01-27T03:31:04;96789.41;;;8.09;60.59
56719;BME280;42597;40.636;0.278;2023-01-27T03:33:30;96793.97;;;8.33;56.16
56719;BME280;42597;40.636;0.278;2023-01-27T03:35:57;96799.75;;;8.60;59.28
56719;BME280;42597;40.636;0.278;2023-01-27T03:38:41;96802.03;;;7.02;46.93
56719;BME280;42597;40.636;0.278;2023-01-27T03:41:25;96823.25;;;6.11;49.62
56719;BME280;42597;40.636;0.278;2023-01-27T03:44:09;96814.53;;;5.29;49.67
56719;BME280;42597;40.636;0.278;2023-01-27T03:46:53;96792.09;;;7.48;54.26
56719;BME280;42597;40.636;0.278;2023-01-27T03:49:19;96799.84;;;6.62;49.02
56719;BME280;42597;40.636;0.278;2023-01-27T03:51:45;96794.22;;;6.55;50.12
56719;BME280;42597;40.636;0.278;2023-01-27T03:54:10;96793.09;;;7.10;48.56
56719;BME280;42597;40.636;0.278;2023-01-27T03:56:36;96785.97;;;5.80;51.88
56719;BME280;42597;40.636;0.278;2023-01-27T03:59:02;96747.53;;;8.49;59.83
56719;BME280;42597;40.636;0.278;2023-01-27T04:01:28;96745.53;;;7.23;48.72
56719;BME280;42597;40.636;0.278;2023-01-27T04:03:54;96755.06;;;8.71;53.77
56719;BME280;42597;40.636;0.278;2023-01-27T04:06:41;96766.28;;;7.35;48.43
56719;BME280;42597;40.636;0.278;2023-01-27T04:09:33;96773.50;;;8.69;52.51
56719;BME280;42597;40.636;0.278;2023-01-27T04:12:00;96746.03;;;7.50;47.53
56719;BME280;42597;40.636;0.278;2023-01-27T04:14:34;96766.22;;;8.05;56.29
56719;BME280;42597;40.636;0.278;2023-01-27T04:17:05;96737.41;;;9.46;55.35
56719;BME280;42597;40.636;0.278;2023-01-27T04:19:32;96708.16;;;7.91;54.55
56719;BME280;42597;40.636;0.278;2023-01-27T04:21:59;96741.94;;;8.42;51.67
56719;BME280;42597;40.636;0.278;2023-01-27T04:24:25;96744.88;;;8.12;50.35
56719;BME280;42597;40.636;0.278;2023-01-27T04:26:59;96731.38;;;9.05;52.66
56719;BME280;42597;40.636;0.278;2023-01-27T04:29:27;96712.66;;;8.52;47.80
56719;BME280;42597;40.636;0.278;2023-01-27T04:31:54;96717.47;;;9.19;55.65
56719;BME280;42597;40.636;0.278;2023-01-27T04:34:20;96723.88;;;7.65;49.34
56719;BME280;42597;40.636;0.278;2023-01-27T04:36:46;96701.41;;;8.78;56.06
56719;BME280;42597;40.636;0.278;2023-01-27T04:39:13;96721.66;;;5.80;49.42
56719;BME280;42597;40.636;0.278;2023-01-27T04:41:39;96698.78;;;8.38;53.47
56719;BME280;42597;40.636;0.278;2023-01-27T04:44:06;96685.13;;;9.34;54.46
56719;BME280;42597;40.636;0.278;2023-01-27T04:46:32;96706.16;;;7.76;49.13
56719;BME280;42597;40.636;0.278;2023-01-27T04:48:59;96707.44;;;6.84;51.57
56719;BME280;42597;40.636;0.278;2023-01-27T04:51:25;96699.41;;;7.95;53.33
56719;BME280;42597;40.636;0.278;2023-01-27T04:53:50;96727.75;;;6.73;50.23
56719;BME280;42597;40.636;0.278;2023-01-27T04:56:23;96719.16;;;7.62;56.49
56719;BME280;42597;40.636;0.278;2023-01-27T04:58:50;96717.31;;;8.15;54.17
56719;BME280;42597;40.636;0.278;2023-01-27T05:01:16;96733.34;;;6.68;51.61
56719;BME280;42597;40.636;0.278;2023-01-27T05:03:42;96705.59;;;7.46;54.58
56719;BME280;42597;40.636;0.278;2023-01-27T05:06:09;96723.16;;;8.05;59.35
56719;BME280;42597;40.636;0.278;2023-01-27T05:08:35;96699.41;;;8.35;57.77
56719;BME280;42597;40.636;0.278;2023-01-27T05:11:01;96735.44;;;6.96;50.44
56719;BME280;42597;40.636;0.278;2023-01-27T05:13:26;96734.16;;;7.38;52.79
56719;BME280;42597;40.636;0.278;2023-01-27T05:16:12;96730.69;;;8.52;53.64
56719;BME280;42597;40.636;0.278;2023-01-27T05:18:39;96726.22;;;6.84;51.15
56719;BME280;42597;40.636;0.278;2023-01-27T05:21:05;96713.78;;;8.27;54.25
56719;BME280;42597;40.636;0.278;2023-01-27T05:23:32;96723.63;;;7.82;50.92
56719;BME280;42597;40.636;0.278;2023-01-27T05:26:11;96727.56;;;7.73;56.99
56719;BME280;42597;40.636;0.278;2023-01-27T05:28:39;96723.97;;;6.86;50.28
56719;BME280;42597;40.636;0.278;2023-01-27T05:31:08;96746.41;;;6.70;50.94
56719;BME280;42597;40.636;0.278;2023-01-27T05:33:34;96747.16;;;7.36;61.33
56719;BME280;42597;40.636;0.278;2023-01-27T05:36:01;96760.84;;;5.93;53.18
56719;BME280;42597;40.636;0.278;2023-01-27T05:38:28;96745.53;;;6.45;55.46
56719;BME280;42597;40.636;0.278;2023-01-27T05:40:55;96783.22;;;5.68;53.78
56719;BME280;42597;40.636;0.278;2023-01-27T05:43:21;96775.22;;;6.81;54.46
56719;BME280;42597;40.636;0.278;2023-01-27T05:45:46;96776.59;;;6.87;53.33
56719;BME280;42597;40.636;0.278;2023-01-27T05:48:12;96781.63;;;6.26;55.12
56719;BME280;42597;40.636;0.278;2023-01-27T05:50:37;96773.78;;;6.84;62.40
56719;BME280;42597;40.636;0.278;2023-01-27T05:53:03;96776.25;;;6.05;54.78
56719;BME280;42597;40.636;0.278;2023-01-27T05:55:28;96781.63;;;6.26;53.79
56719;BME280;42597;40.636;0.278;2023-01-27T05:57:54;96789.38;;;6.49;51.81
56719;BME280;42597;40.636;0.278;2023-01-27T06:00:20;96787.75;;;6.06;58.65
56719;BME280;42597;40.636;0.278;2023-01-27T06:02:45;96782.81;;;5.78;53.34
56719;BME280;42597;40.636;0.278;2023-01-27T06:05:11;96779.31;;;8.06;51.66
56719;BME280;42597;40.636;0.278;2023-01-27T06:07:36;96807.03;;;6.50;53.41
56719;BME280;42597;40.636;0.278;2023-01-27T06:10:02;96796.88;;;7.55;58.51
56719;BME280;42597;40.636;0.278;2023-01-27T06:12:28;96776.28;;;8.32;54.57
56719;BME280;42597;40.636;0.278;2023-01-27T06:14:53;96778.06;;;8.16;56.39
56719;BME280;42597;40.636;0.278;2023-01-27T06:17:22;96796.59;;;7.93;53.62
56719;BME280;42597;40.636;0.278;2023-01-27T06:19:47;96788.59;;;8.86;58.11
56719;BME280;42597;40.636;0.278;2023-01-27T06:22:13;96797.47;;;7.48;52.34
56719;BME280;42597;40.636;0.278;2023-01-27T06:24:38;96794.59;;;6.66;50.68
56719;BME280;42597;40.636;0.278;2023-01-27T06:27:04;96801.94;;;6.57;54.44
56719;BME280;42597;40.636;0.278;2023-01-27T06:29:29;96785.91;;;7.48;53.16
56719;BME280;42597;40.636;0.278;2023-01-27T06:31:55;96786.28;;;7.13;56.44
56719;BME280;42597;40.636;0.278;2023-01-27T06:34:20;96794.47;;;6.41;54.62
56719;BME280;42597;40.636;0.278;2023-01-27T06:36:46;96772.19;;;8.51;58.49
56719;BME280;42597;40.636;0.278;2023-01-27T06:39:12;96802.78;;;5.98;52.25
56719;BME280;42597;40.636;0.278;2023-01-27T06:41:38;96794.03;;;6.10;56.97
56719;BME280;42597;40.636;0.278;2023-01-27T06:44:04;96792.78;;;6.58;52.84
56719;BME280;42597;40.636;0.278;2023-01-27T06:46:29;96810.03;;;5.98;53.67
56719;BME280;42597;40.636;0.278;2023-01-27T06:48:55;96807.31;;;6.57;52.69
56719;BME280;42597;40.636;0.278;2023-01-27T06:51:20;96819.72;;;6.82;59.92
56719;BME280;42597;40.636;0.278;2023-01-27T06:53:46;96808.56;;;7.83;51.43
56719;BME280;42597;40.636;0.278;2023-01-27T06:56:11;96812.56;;;7.40;60.04
56719;BME280;42597;40.636;0.278;2023-01-27T06:58:37;96813.63;;;9.14;56.42
56719;BME280;42597;40.636;0.278;2023-01-27T07:01:05;96803.25;;;9.76;54.53
56719;BME280;42597;40.636;0.278;2023-01-27T07:03:31;96791.25;;;9.58;51.16
56719;BME280;42597;40.636;0.278;2023-01-27T07:05:57;96816.00;;;8.76;58.58
56719;BME280;42597;40.636;0.278;2023-01-27T07:08:22;96810.38;;;7.22;53.45
56719;BME280;42597;40.636;0.278;2023-01-27T07:10:48;96819.81;;;8.75;54.08
56719;BME280;42597;40.636;0.278;2023-01-27T07:13:14;96804.91;;;9.65;54.71
56719;BME280;42597;40.636;0.278;2023-01-27T07:15:39;96816.63;;;10.20;53.56
56719;BME280;42597;40.636;0.278;2023-01-27T07:18:05;96820.31;;;9.80;54.37
56719;BME280;42597;40.636;0.278;2023-01-27T07:20:31;96818.16;;;9.26;53.06
56719;BME280;42597;40.636;0.278;2023-01-27T07:22:57;96817.72;;;8.56;46.88
56719;BME280;42597;40.636;0.278;2023-01-27T07:25:24;96830.69;;;8.78;57.00
56719;BME280;42597;40.636;0.278;2023-01-27T07:27:50;96846.41;;;9.76;47.92
56719;BME280;42597;40.636;0.278;2023-01-27T07:30:15;96847.31;;;9.36;55.42
56719;BME280;42597;40.636;0.278;2023-01-27T07:32:41;96852.03;;;8.71;55.24
56719;BME280;42597;40.636;0.278;2023-01-27T07:35:07;96847.88;;;9.14;54.24
56719;BME280;42597;40.636;0.278;2023-01-27T07:37:32;96854.38;;;8.85;56.58
56719;BME280;42597;40.636;0.278;2023-01-27T07:39:58;96860.16;;;8.10;51.66
56719;BME280;42597;40.636;0.278;2023-01-27T07:42:23;96859.53;;;9.18;51.50
56719;BME280;42597;40.636;0.278;2023-01-27T07:44:49;96861.97;;;9.23;46.35
56719;BME280;42597;40.636;0.278;2023-01-27T07:47:14;96872.16;;;8.12;46.44
56719;BME280;42597;40.636;0.278;2023-01-27T07:49:40;96846.78;;;9.75;53.09
56719;BME280;42597;40.636;0.278;2023-01-27T07:52:05;96857.31;;;9.36;44.76
56719;BME280;42597;40.636;0.278;2023-01-27T07:54:31;96839.13;;;8.77;48.65
56719;BME280;42597;40.636;0.278;2023-01-27T07:57:00;96842.38;;;9.38;53.78
56719;BME280;42597;40.636;0.278;2023-01-27T07:59:26;96847.81;;;8.98;48.84
56719;BME280;42597;40.636;0.278;2023-01-27T08:01:52;96845.53;;;9.72;47.94
56719;BME280;42597;40.636;0.278;2023-01-27T08:04:18;96850.88;;;9.25;46.22
56719;BME280;42597;40.636;0.278;2023-01-27T08:06:44;96848.25;;;7.99;51.00
56719;BME280;42597;40.636;0.278;2023-01-27T08:09:09;96841.34;;;9.59;52.90
56719;BME280;42597;40.636;0.278;2023-01-27T08:11:35;96863.84;;;8.54;53.17
56719;BME280;42597;40.636;0.278;2023-01-27T08:14:01;96831.59;;;10.49;51.99
56719;BME280;42597;40.636;0.278;2023-01-27T08:16:26;96857.34;;;8.43;46.97
56719;BME280;42597;40.636;0.278;2023-01-27T08:18:52;96856.50;;;9.79;51.89
56719;BME280;42597;40.636;0.278;2023-01-27T08:21:18;96843.34;;;8.90;50.80
56719;BME280;42597;40.636;0.278;2023-01-27T08:23:44;96849.56;;;9.34;53.48
56719;BME280;42597;40.636;0.278;2023-01-27T08:26:10;96854.91;;;9.47;44.95
56719;BME280;42597;40.636;0.278;2023-01-27T08:28:37;96835.31;;;9.06;47.40
56719;BME280;42597;40.636;0.278;2023-01-27T08:31:08;96826.38;;;10.09;50.35
56719;BME280;42597;40.636;0.278;2023-01-27T08:33:34;96836.13;;;9.50;51.53
56719;BME280;42597;40.636;0.278;2023-01-27T08:36:05;96844.59;;;9.36;47.96
56719;BME280;42597;40.636;0.278;2023-01-27T08:38:31;96832.88;;;7.75;48.20
56719;BME280;42597;40.636;0.278;2023-01-27T08:41:02;96851.38;;;7.76;50.07
56719;BME280;42597;40.636;0.278;2023-01-27T08:43:28;96849.34;;;7.73;50.97
56719;BME280;42597;40.636;0.278;2023-01-27T08:45:53;96854.09;;;8.01;51.53
56719;BME280;42597;40.636;0.278;2023-01-27T08:48:20;96813.81;;;8.53;53.87
56719;BME280;42597;40.636;0.278;2023-01-27T08:50:47;96847.94;;;7.88;49.28
56719;BME280;42597;40.636;0.278;2023-01-27T08:53:12;96844.22;;;8.54;55.34
56719;BME280;42597;40.636;0.278;2023-01-27T08:55:38;96856.13;;;7.13;49.47
56719;BME280;42597;40.636;0.278;2023-01-27T08:58:03;96837.63;;;7.32;56.62
56719;BME280;42597;40.636;0.278;2023-01-27T09:00:29;96846.81;;;8.01;49.27
56719;BME280;42597;40.636;0.278;2023-01-27T09:02:54;96841.31;;;8.10;50.69
56719;BME280;42597;40.636;0.278;2023-01-27T09:05:20;96836.81;;;8.02;51.68
56719;BME280;42597;40.636;0.278;2023-01-27T09:07:46;96835.25;;;7.76;48.14
56719;BME280;42597;40.636;0.278;2023-01-27T09:10:13;96875.06;;;7.50;46.73
56719;BME280;42597;40.636;0.278;2023-01-27T09:12:39;96849.91;;;8.77;53.68
56719;BME280;42597;40.636;0.278;2023-01-27T09:15:05;96877.38;;;9.23;50.94
56719;BME280;42597;40.636;0.278;2023-01-27T09:17:31;96868.84;;;8.93;50.32
56719;BME280;42597;40.636;0.278;2023-01-27T09:19:57;96866.97;;;8.81;47.39
56719;BME280;42597;40.636;0.278;2023-01-27T09:22:22;96864.81;;;9.14;52.19
56719;BME280;42597;40.636;0.278;2023-01-27T09:24:48;96872.94;;;9.02;50.06
56719;BME280;42597;40.636;0.278;2023-01-27T09:27:14;96878.97;;;9.39;51.37
56719;BME280;42597;40.636;0.278;2023-01-27T09:29:39;96873.34;;;9.45;51.24
56719;BME280;42597;40.636;0.278;2023-01-27T09:32:05;96881.50;;;10.08;51.08
56719;BME280;42597;40.636;0.278;2023-01-27T09:34:33;96887.66;;;9.61;50.66
56719;BME280;42597;40.636;0.278;2023-01-27T09:37:05;96879.91;;;9.75;51.25
56719;BME280;42597;40.636;0.278;2023-01-27T09:39:35;96888.25;;;9.54;48.14
56719;BME280;42597;40.636;0.278;2023-01-27T10:01:04;96871.66;;;9.40;50.79
56719;BME280;42597;40.636;0.278;2023-01-27T10:23:17;96897.41;;;9.09;47.92
56719;BME280;42597;40.636;0.278;2023-01-27T10:28:42;96898.31;;;8.49;47.27
56719;BME280;42597;40.636;0.278;2023-01-27T10:33:54;96895.13;;;8.22;45.35
56719;BME280;42597;40.636;0.278;2023-01-27T10:42:37;96898.28;;;8.73;44.36
56719;BME280;42597;40.636;0.278;2023-01-27T10:45:26;96894.69;;;9.22;49.06
56719;BME280;42597;40.636;0.278;2023-01-27T10:53:24;96890.41;;;9.21;50.24
56719;BME280;42597;40.636;0.278;2023-01-27T11:00:59;96888.25;;;9.26;48.07
56719;BME280;42597;40.636;0.278;2023-01-27T11:03:32;96889.69;;;8.96;45.44
56719;BME280;42597;40.636;0.278;2023-01-27T11:06:02;96887.75;;;9.08;45.29
56719;BME280;42597;40.636;0.278;2023-01-27T11:08:33;96870.38;;;9.78;49.53
56719;BME280;42597;40.636;0.278;2023-01-27T11:11:02;96879.22;;;9.06;44.10
56719;BME280;42597;40.636;0.278;2023-01-27T11:13:48;96891.78;;;8.62;46.01
56719;BME280;42597;40.636;0.278;2023-01-27T11:16:17;96878.03;;;8.92;46.33
56719;BME280;42597;40.636;0.278;2023-01-27T11:18:44;96881.00;;;8.62;45.48
56719;BME280;42597;40.636;0.278;2023-01-27T11:21:20;96872.50;;;9.56;48.41
56719;BME280;42597;40.636;0.278;2023-01-27T11:23:48;96876.75;;;9.42;44.44
56719;BME280;42597;40.636;0.278;2023-01-27T11:26:29;96872.75;;;9.23;46.08
56719;BME280;42597;40.636;0.278;2023-01-27T11:29:08;96868.66;;;9.13;44.71
56719;BME280;42597;40.636;0.278;2023-01-27T11:32:03;96855.69;;;9.19;46.30
56719;BME280;42597;40.636;0.278;2023-01-27T11:34:40;96862.75;;;9.52;48.20
56719;BME280;42597;40.636;0.278;2023-01-27T11:39:43;96847.88;;;9.58;46.62
56719;BME280;42597;40.636;0.278;2023-01-27T11:42:10;96850.22;;;9.15;45.66
56719;BME280;42597;40.636;0.278;2023-01-27T11:44:36;96835.63;;;9.17;45.95
56719;BME280;42597;40.636;0.278;2023-01-27T11:47:05;96846.16;;;8.94;44.07
56719;BME280;42597;40.636;0.278;2023-01-27T11:49:42;96836.59;;;9.24;45.01
56719;BME280;42597;40.636;0.278;2023-01-27T11:52:14;96836.94;;;9.23;44.29
56719;BME280;42597;40.636;0.278;2023-01-27T11:55:05;96843.53;;;9.53;45.94
56719;BME280;42597;40.636;0.278;2023-01-27T11:57:29;96828.06;;;9.22;47.16
56719;BME280;42597;40.636;0.278;2023-01-27T11:59:59;96845.50;;;8.84;44.48
56719;BME280;42597;40.636;0.278;2023-01-27T12:02:35;96826.88;;;9.35;46.13
56719;BME280;42597;40.636;0.278;2023-01-27T12:05:15;96828.53;;;8.84;44.95
56719;BME280;42597;40.636;0.278;2023-01-27T12:08:00;96826.69;;;9.28;44.25
56719;BME280;42597;40.636;0.278;2023-01-27T12:10:34;96831.59;;;9.38;46.42
56719;BME280;42597;40.636;0.278;2023-01-27T12:13:07;96822.41;;;9.71;47.93
56719;BME280;42597;40.636;0.278;2023-01-27T12:15:35;96819.97;;;9.22;43.82
56719;BME280;42597;40.636;0.278;2023-01-27T12:18:07;96823.66;;;9.02;44.75
56719;BME280;42597;40.636;0.278;2023-01-27T12:20:39;96811.78;;;10.10;48.62
56719;BME280;42597;40.636;0.278;2023-01-27T12:25:40;96807.16;;;9.79;49.28
56719;BME280;42597;40.636;0.278;2023-01-27T12:28:18;96815.91;;;9.28;43.11
56719;BME280;42597;40.636;0.278;2023-01-27T12:30:46;96809.47;;;9.17;45.70
56719;BME280;42597;40.636;0.278;2023-01-27T12:33:20;96807.94;;;9.79;47.14
56719;BME280;42597;40.636;0.278;2023-01-27T12:35:48;96803.84;;;8.54;45.39
56719;BME280;42597;40.636;0.278;2023-01-27T12:38:20;96794.56;;;9.83;46.74
56719;BME280;42597;40.636;0.278;2023-01-27T12:40:47;96797.63;;;10.32;47.11
56719;BME280;42597;40.636;0.278;2023-01-27T12:43:16;96801.19;;;9.10;45.84
56719;BME280;42597;40.636;0.278;2023-01-27T12:45:43;96792.13;;;9.94;46.49
56719;BME280;42597;40.636;0.278;2023-01-27T12:48:18;96791.66;;;9.44;44.13
56719;BME280;42597;40.636;0.278;2023-01-27T12:53:19;96782.28;;;10.01;43.68
56719;BME280;42597;40.636;0.278;2023-01-27T12:58:40;96774.97;;;10.02;45.53
56719;BME280;42597;40.636;0.278;2023-01-27T13:03:48;96783.41;;;9.84;45.45
56719;BME280;42597;40.636;0.278;2023-01-27T13:06:15;96774.72;;;9.75;42.16
56719;BME280;42597;40.636;0.278;2023-01-27T13:08:43;96777.66;;;10.02;46.78
56719;BME280;42597;40.636;0.278;2023-01-27T13:11:10;96774.66;;;10.38;43.94
56719;BME280;42597;40.636;0.278;2023-01-27T13:13:36;96782.88;;;9.95;41.74
56719;BME280;42597;40.636;0.278;2023-01-27T13:16:28;96777.03;;;9.93;44.02
56719;BME280;42597;40.636;0.278;2023-01-27T13:18:59;96773.09;;;10.22;46.63
56719;BME280;42597;40.636;0.278;2023-01-27T13:21:37;96776.94;;;10.56;45.13
56719;BME280;42597;40.636;0.278;2023-01-27T13:24:09;96770.72;;;10.20;46.36
56719;BME280;42597;40.636;0.278;2023-01-27T13:26:38;96778.09;;;9.88;43.33
56719;BME280;42597;40.636;0.278;2023-01-27T13:31:55;96770.31;;;10.18;43.98
56719;BME280;42597;40.636;0.278;2023-01-27T13:36:54;96774.00;;;9.47;43.98
56719;BME280;42597;40.636;0.278;2023-01-27T13:42:22;96766.47;;;10.19;41.04
56719;BME280;42597;40.636;0.278;2023-01-27T13:44:55;96775.06;;;9.89;42.43
56719;BME280;42597;40.636;0.278;2023-01-27T13:47:27;96775.34;;;10.35;46.05
56719;BME280;42597;40.636;0.278;2023-01-27T13:50:01;96771.41;;;9.98;43.24
56719;BME280;42597;40.636;0.278;2023-01-27T13:52:29;96772.28;;;10.37;42.36
56719;BME280;42597;40.636;0.278;2023-01-27T13:54:55;96776.06;;;10.01;41.01
56719;BME280;42597;40.636;0.278;2023-01-27T14:05:57;96772.66;;;10.55;42.29
56719;BME280;42597;40.636;0.278;2023-01-27T14:11:33;96791.94;;;10.73;41.61
56719;BME280;42597;40.636;0.278;2023-01-27T14:16:39;96779.06;;;11.05;42.47
56719;BME280;42597;40.636;0.278;2023-01-27T14:25:03;96784.31;;;10.24;45.02
56719;BME280;42597;40.636;0.278;2023-01-27T14:27:35;96790.28;;;10.49;41.80
56719;BME280;42597;40.636;0.278;2023-01-27T14:32:50;96793.94;;;10.76;43.06
56719;BME280;42597;40.636;0.278;2023-01-27T14:35:45;96793.72;;;10.65;42.09
56719;BME280;42597;40.636;0.278;2023-01-27T14:44:32;96795.78;;;10.72;39.75
56719;BME280;42597;40.636;0.278;2023-01-27T14:52:47;96796.66;;;11.37;42.76
56719;BME280;42597;40.636;0.278;2023-01-27T15:26:05;96824.47;;;11.15;41.00
56719;BME280;42597;40.636;0.278;2023-01-27T15:28:34;96825.59;;;10.75;41.84
56719;BME280;42597;40.636;0.278;2023-01-27T15:31:05;96824.00;;;11.32;45.32
56719;BME280;42597;40.636;0.278;2023-01-27T15:41:37;96832.47;;;10.73;42.71
56719;BME280;42597;40.636;0.278;2023-01-27T15:46:53;96834.22;;;10.65;43.08
56719;BME280;42597;40.636;0.278;2023-01-27T15:49:28;96848.44;;;10.11;40.12
56719;BME280;42597;40.636;0.278;2023-01-27T15:52:07;96848.69;;;10.73;44.04
56719;BME280;42597;40.636;0.278;2023-01-27T15:54:33;96846.13;;;10.45;42.91
56719;BME280;42597;40.636;0.278;2023-01-27T15:57:04;96848.69;;;10.73;44.34
56719;BME280;42597;40.636;0.278;2023-01-27T15:59:45;96853.00;;;10.58;41.63
56719;BME280;42597;40.636;0.278;2023-01-27T16:02:19;96854.63;;;10.98;45.51
56719;BME280;42597;40.636;0.278;2023-01-27T16:07:34;96848.56;;;11.24;47.38
56719;BME280;42597;40.636;0.278;2023-01-27T16:10:02;96857.00;;;11.42;46.23
56719;BME280;42597;40.636;0.278;2023-01-27T16:12:38;96862.28;;;9.94;41.56
56719;BME280;42597;40.636;0.278;2023-01-27T16:23:12;96873.09;;;10.76;43.85
56719;BME280;42597;40.636;0.278;2023-01-27T16:25:44;96881.38;;;11.22;46.34